Time;durP1;ratioP1;P1;durP2;ratioP2;P2;SDS_P1;SDS_P2;PMS_P1;PMS_P2;Temp;Humidity;BMP_temperature;BMP_pressure;BME280_temperature;BME280_humidity;BME280_pressure;Samples;Min_cycle;Max_cycle;Signal;HPM_P1;HPM_P2
2021/10/21 00:00:43;;;;;;;2.00;0.28;;;;;;;;;;5033235;28;20626;-60
2021/10/21 00:03:08;;;;;;;0.47;0.10;;;;;;;;;;5032899;28;20104;-61
2021/10/21 00:05:34;;;;;;;1.30;0.10;;;;;;;;;;5032597;28;20068;-60
2021/10/21 00:07:59;;;;;;;2.07;0.20;;;;;;;;;;5033435;28;20251;-61
2021/10/21 00:10:24;;;;;;;1.05;0.13;;;;;;;;;;5033148;28;20263;-60
2021/10/21 00:12:49;;;;;;;0.22;0.22;;;;;;;;;;5032967;28;20032;-61
2021/10/21 00:15:15;;;;;;;0.60;0.30;;;;;;;;;;5033385;28;20357;-61
2021/10/21 00:17:40;;;;;;;0.40;0.20;;;;;;;;;;5032833;28;20022;-60
2021/10/21 00:20:06;;;;;;;0.60;0.10;;;;;;;;;;5033377;28;20068;-61
2021/10/21 00:22:32;;;;;;;0.85;0.35;;;;;;;;;;5033066;28;20108;-60
2021/10/21 00:24:57;;;;;;;0.55;0.17;;;;;;;;;;5033243;28;20100;-60
2021/10/21 00:27:23;;;;;;;0.17;0.00;;;;;;;;;;5032753;28;20494;-60
2021/10/21 00:29:48;;;;;;;0.65;0.20;;;;;;;;;;5033257;28;20022;-61
2021/10/21 00:32:13;;;;;;;0.40;0.20;;;;;;;;;;5033163;28;20030;-60
2021/10/21 00:34:38;;;;;;;0.80;0.40;;;;;;;;;;5032762;28;20033;-60
2021/10/21 00:37:03;;;;;;;2.60;0.20;;;;;;;;;;5033125;28;20033;-60
2021/10/21 00:39:29;;;;;;;0.20;0.10;;;;;;;;;;5032849;28;20097;-61
2021/10/21 00:41:54;;;;;;;0.60;0.10;;;;;;;;;;5033019;28;20435;-60
2021/10/21 00:44:20;;;;;;;0.22;0.10;;;;;;;;;;5033046;28;20425;-60
2021/10/21 00:46:45;;;;;;;0.25;0.15;;;;;;;;;;5032850;28;20549;-60
2021/10/21 00:49:10;;;;;;;0.82;0.10;;;;;;;;;;5033141;28;20018;-60
2021/10/21 00:51:36;;;;;;;0.50;0.10;;;;;;;;;;5032864;28;20013;-61
2021/10/21 00:54:03;;;;;;;0.40;0.20;;;;;;;;;;5032718;28;20382;-61
2021/10/21 00:56:28;;;;;;;0.73;0.10;;;;;;;;;;5032807;28;20104;-60
2021/10/21 00:58:54;;;;;;;0.50;0.22;;;;;;;;;;5032769;28;20564;-60
2021/10/21 01:01:20;;;;;;;0.30;0.15;;;;;;;;;;5032932;28;20037;-60
2021/10/21 01:03:46;;;;;;;0.52;0.22;;;;;;;;;;5032368;28;20053;-61
2021/10/21 01:06:11;;;;;;;2.42;0.30;;;;;;;;;;5032956;28;20017;-61
2021/10/21 01:08:37;;;;;;;0.68;0.35;;;;;;;;;;5032146;28;20025;-61
2021/10/21 01:11:03;;;;;;;0.20;0.10;;;;;;;;;;5032779;28;20414;-60
2021/10/21 01:13:28;;;;;;;0.45;0.25;;;;;;;;;;5032391;28;20516;-60
2021/10/21 01:16:07;;;;;;;0.40;0.28;;;;;;;;;;5034780;28;20017;-60
2021/10/21 01:18:33;;;;;;;0.17;0.15;;;;;;;;;;5036430;28;20024;-60
2021/10/21 01:20:58;;;;;;;0.95;0.20;;;;;;;;;;5036427;28;20017;-61
2021/10/21 01:23:24;;;;;;;1.35;0.40;;;;;;;;;;5036112;28;20486;-60
2021/10/21 01:25:49;;;;;;;0.67;0.27;;;;;;;;;;5036412;28;20444;-60
2021/10/21 01:28:14;;;;;;;0.32;0.20;;;;;;;;;;5036379;28;20258;-60
2021/10/21 01:30:39;;;;;;;1.70;0.40;;;;;;;;;;5036144;28;20033;-60
2021/10/21 01:33:05;;;;;;;0.30;0.10;;;;;;;;;;5035640;28;20104;-60
2021/10/21 01:35:30;;;;;;;1.42;0.20;;;;;;;;;;5035872;28;20024;-61
2021/10/21 01:37:55;;;;;;;0.68;0.15;;;;;;;;;;5036223;28;20029;-61
2021/10/21 01:40:21;;;;;;;0.50;0.10;;;;;;;;;;5035848;28;20021;-60
2021/10/21 01:42:47;;;;;;;0.85;0.17;;;;;;;;;;5035829;28;20021;-60
2021/10/21 01:45:19;;;;;;;0.73;0.40;;;;;;;;;;5036067;28;20115;-60
2021/10/21 01:47:45;;;;;;;0.63;0.10;;;;;;;;;;5035764;28;20025;-61
2021/10/21 01:50:10;;;;;;;0.38;0.15;;;;;;;;;;5035852;28;20032;-60
2021/10/21 01:52:35;;;;;;;1.23;0.20;;;;;;;;;;5035844;28;20014;-60
2021/10/21 01:55:01;;;;;;;0.53;0.13;;;;;;;;;;5035617;28;20033;-60
2021/10/21 01:57:26;;;;;;;0.73;0.13;;;;;;;;;;5035283;28;20247;-60
2021/10/21 01:59:51;;;;;;;0.60;0.10;;;;;;;;;;5043928;22;20033;-61
2021/10/21 02:02:16;;;;;;;0.30;0.10;;;;;;;;;;5034785;28;20290;-61
2021/10/21 02:04:41;;;;;;;0.57;0.10;;;;;;;;;;5035533;28;20255;-61
2021/10/21 02:07:07;;;;;;;1.70;0.10;;;;;;;;;;5035465;28;20100;-61
2021/10/21 02:09:32;;;;;;;0.52;0.20;;;;;;;;;;5035267;28;20109;-61
2021/10/21 02:11:58;;;;;;;0.35;0.10;;;;;;;;;;5035753;28;20034;-60
2021/10/21 02:14:23;;;;;;;0.30;0.10;;;;;;;;;;5035270;28;20472;-60
2021/10/21 02:16:48;;;;;;;1.38;0.15;;;;;;;;;;5035216;28;20071;-60
2021/10/21 02:19:14;;;;;;;0.68;0.15;;;;;;;;;;5035254;28;20029;-60
2021/10/21 02:21:39;;;;;;;0.30;0.20;;;;;;;;;;5035264;28;20028;-61
2021/10/21 02:24:04;;;;;;;0.60;0.30;;;;;;;;;;5035071;28;20025;-61
2021/10/21 02:26:29;;;;;;;1.75;0.10;;;;;;;;;;5034299;28;20049;-60
2021/10/21 02:28:55;;;;;;;0.88;0.22;;;;;;;;;;5035008;28;20021;-60
2021/10/21 02:31:20;;;;;;;0.30;0.20;;;;;;;;;;5034991;28;20044;-60
2021/10/21 02:33:45;;;;;;;0.85;0.20;;;;;;;;;;5034822;28;20045;-61
2021/10/21 02:36:11;;;;;;;0.23;0.10;;;;;;;;;;5035173;28;20377;-61
2021/10/21 02:38:36;;;;;;;0.28;0.13;;;;;;;;;;5034862;28;20255;-61
2021/10/21 02:41:01;;;;;;;0.50;0.15;;;;;;;;;;5033789;28;20464;-60
2021/10/21 02:43:26;;;;;;;0.85;0.10;;;;;;;;;;5034907;28;20022;-61
2021/10/21 02:45:51;;;;;;;0.00;0.00;;;;;;;;;;5034850;28;20183;-60
2021/10/21 02:48:17;;;;;;;0.70;0.20;;;;;;;;;;5034653;28;20026;-61
2021/10/21 02:50:42;;;;;;;1.08;0.20;;;;;;;;;;5034474;28;20030;-61
2021/10/21 02:53:07;;;;;;;1.23;0.30;;;;;;;;;;5034557;28;20472;-60
2021/10/21 02:55:32;;;;;;;0.20;0.10;;;;;;;;;;5034145;28;20096;-60
2021/10/21 02:57:58;;;;;;;0.40;0.10;;;;;;;;;;5034772;28;20017;-60
2021/10/21 03:00:23;;;;;;;0.50;0.05;;;;;;;;;;5034230;28;20302;-60
2021/10/21 03:02:48;;;;;;;0.87;0.10;;;;;;;;;;5034477;28;20036;-61
2021/10/21 03:05:13;;;;;;;0.38;0.10;;;;;;;;;;5034520;28;20254;-61
2021/10/21 03:07:38;;;;;;;0.85;0.40;;;;;;;;;;5034315;28;20034;-60
2021/10/21 03:10:04;;;;;;;0.68;0.10;;;;;;;;;;5034258;28;20139;-61
2021/10/21 03:12:29;;;;;;;1.45;0.40;;;;;;;;;;5034214;28;20112;-60
2021/10/21 03:14:54;;;;;;;0.55;0.20;;;;;;;;;;5033903;28;20026;-61
2021/10/21 03:17:21;;;;;;;0.50;0.10;;;;;;;;;;5034223;28;20017;-61
2021/10/21 03:19:46;;;;;;;1.20;0.40;;;;;;;;;;5033962;28;20412;-60
2021/10/21 03:22:12;;;;;;;1.17;0.10;;;;;;;;;;5034176;28;20064;-60
2021/10/21 03:24:38;;;;;;;0.68;0.20;;;;;;;;;;5034024;28;20025;-60
2021/10/21 03:27:03;;;;;;;0.43;0.22;;;;;;;;;;5034100;28;20083;-61
2021/10/21 03:29:28;;;;;;;0.10;0.10;;;;;;;;;;5033850;28;20025;-60
2021/10/21 03:31:54;;;;;;;0.47;0.10;;;;;;;;;;5033726;28;20063;-60
2021/10/21 03:34:19;;;;;;;0.60;0.13;;;;;;;;;;5033875;28;20079;-60
2021/10/21 03:36:44;;;;;;;0.55;0.15;;;;;;;;;;5033864;28;20722;-61
2021/10/21 03:39:10;;;;;;;0.57;0.20;;;;;;;;;;5033712;28;20025;-61
2021/10/21 03:41:35;;;;;;;0.28;0.08;;;;;;;;;;5033759;28;20025;-60
2021/10/21 03:44:00;;;;;;;0.57;0.15;;;;;;;;;;5033884;28;20088;-61
2021/10/21 03:46:25;;;;;;;0.93;0.15;;;;;;;;;;5033602;28;20422;-60
2021/10/21 03:48:51;;;;;;;0.65;0.20;;;;;;;;;;5033747;28;20465;-61
2021/10/21 03:51:16;;;;;;;0.20;0.10;;;;;;;;;;5033902;28;20021;-60
2021/10/21 03:53:41;;;;;;;1.33;0.20;;;;;;;;;;5033058;28;20021;-61
2021/10/21 03:56:09;;;;;;;0.68;0.10;;;;;;;;;;5033539;28;20717;-61
2021/10/21 03:58:34;;;;;;;1.10;0.20;;;;;;;;;;5033525;28;20100;-61
2021/10/21 04:00:59;;;;;;;0.60;0.30;;;;;;;;;;5033403;28;20112;-61
2021/10/21 04:03:24;;;;;;;0.30;0.10;;;;;;;;;;5032935;28;20716;-60
2021/10/21 04:05:49;;;;;;;0.15;0.13;;;;;;;;;;5033107;28;20254;-60
2021/10/21 04:08:15;;;;;;;0.43;0.20;;;;;;;;;;5033371;28;20544;-60
2021/10/21 04:10:42;;;;;;;1.17;0.20;;;;;;;;;;5033053;28;20021;-62
2021/10/21 04:13:07;;;;;;;1.17;0.25;;;;;;;;;;5033620;28;20138;-61
2021/10/21 04:15:32;;;;;;;0.10;0.10;;;;;;;;;;5032723;28;20100;-61
2021/10/21 04:17:58;;;;;;;0.57;0.20;;;;;;;;;;5033144;28;20714;-60
2021/10/21 04:20:23;;;;;;;0.93;0.22;;;;;;;;;;5032983;28;20021;-61
2021/10/21 04:22:48;;;;;;;0.45;0.20;;;;;;;;;;5033297;28;20022;-61
2021/10/21 04:25:14;;;;;;;0.40;0.40;;;;;;;;;;5033199;28;20044;-60
2021/10/21 04:27:39;;;;;;;0.52;0.20;;;;;;;;;;5033229;28;20529;-61
2021/10/21 04:30:05;;;;;;;0.90;0.20;;;;;;;;;;5033263;28;20033;-60
2021/10/21 04:32:30;;;;;;;1.85;0.40;;;;;;;;;;5032863;28;20278;-60
2021/10/21 04:34:55;;;;;;;0.68;0.10;;;;;;;;;;5032840;28;20028;-60
2021/10/21 04:37:21;;;;;;;1.80;0.30;;;;;;;;;;5032951;28;20009;-60
2021/10/21 04:39:46;;;;;;;0.50;0.10;;;;;;;;;;5033038;28;20669;-61
2021/10/21 04:42:11;;;;;;;0.10;0.10;;;;;;;;;;5032930;28;20021;-61
2021/10/21 04:44:36;;;;;;;0.20;0.20;;;;;;;;;;5032878;28;20757;-60
2021/10/21 04:47:03;;;;;;;0.40;0.10;;;;;;;;;;5032903;28;20250;-60
2021/10/21 04:49:28;;;;;;;1.02;0.30;;;;;;;;;;5032788;28;20025;-60
2021/10/21 04:51:53;;;;;;;0.87;0.10;;;;;;;;;;5036789;28;20361;-60
2021/10/21 04:54:18;;;;;;;0.98;0.20;;;;;;;;;;5036822;28;20278;-61
2021/10/21 04:56:44;;;;;;;1.52;0.20;;;;;;;;;;5036878;28;20427;-60
2021/10/21 04:59:09;;;;;;;0.25;0.10;;;;;;;;;;5036824;28;20461;-60
2021/10/21 05:01:34;;;;;;;0.88;0.20;;;;;;;;;;5036487;28;20037;-60
2021/10/21 05:03:59;;;;;;;0.65;0.10;;;;;;;;;;5036841;28;20024;-61
2021/10/21 05:06:25;;;;;;;0.20;0.10;;;;;;;;;;5036306;28;20034;-61
2021/10/21 05:08:50;;;;;;;0.30;0.08;;;;;;;;;;5036623;28;20110;-60
2021/10/21 05:11:15;;;;;;;1.10;0.10;;;;;;;;;;5036552;28;20368;-60
2021/10/21 05:13:40;;;;;;;1.42;0.35;;;;;;;;;;5036463;28;20310;-60
2021/10/21 05:16:06;;;;;;;0.28;0.10;;;;;;;;;;5036368;28;20040;-60
2021/10/21 05:18:31;;;;;;;0.28;0.10;;;;;;;;;;5036391;28;20021;-60
2021/10/21 05:20:56;;;;;;;0.30;0.20;;;;;;;;;;5036552;28;20024;-60
2021/10/21 05:23:22;;;;;;;1.02;0.30;;;;;;;;;;5036341;28;20198;-60
2021/10/21 05:25:47;;;;;;;0.98;0.17;;;;;;;;;;5036295;28;20029;-60
2021/10/21 05:28:13;;;;;;;0.90;0.20;;;;;;;;;;5036223;28;20026;-60
2021/10/21 05:30:41;;;;;;;0.25;0.13;;;;;;;;;;5036238;28;20025;-60
2021/10/21 05:33:06;;;;;;;2.10;0.20;;;;;;;;;;5036205;28;20030;-60
2021/10/21 05:35:31;;;;;;;0.95;0.10;;;;;;;;;;5036053;28;20020;-60
2021/10/21 05:37:57;;;;;;;0.30;0.10;;;;;;;;;;5036253;28;20024;-60
2021/10/21 05:40:22;;;;;;;0.40;0.10;;;;;;;;;;5035876;28;20021;-60
2021/10/21 05:42:47;;;;;;;0.08;0.00;;;;;;;;;;5035999;28;20017;-60
2021/10/21 05:45:13;;;;;;;0.57;0.20;;;;;;;;;;5035919;28;20111;-61
2021/10/21 05:47:40;;;;;;;1.10;0.32;;;;;;;;;;5035746;28;20026;-60
2021/10/21 05:50:05;;;;;;;0.10;0.08;;;;;;;;;;5035932;28;20025;-60
2021/10/21 05:52:31;;;;;;;0.85;0.10;;;;;;;;;;5035712;28;20026;-60
2021/10/21 05:54:56;;;;;;;0.40;0.10;;;;;;;;;;5035801;28;20025;-60
2021/10/21 05:57:21;;;;;;;0.95;0.30;;;;;;;;;;5035608;28;20068;-60
2021/10/21 05:59:46;;;;;;;0.60;0.20;;;;;;;;;;5035218;28;20013;-61
2021/10/21 06:02:11;;;;;;;1.13;0.20;;;;;;;;;;5034551;28;20033;-60
2021/10/21 06:04:37;;;;;;;0.40;0.10;;;;;;;;;;5035598;28;20018;-61
2021/10/21 06:07:02;;;;;;;0.93;0.10;;;;;;;;;;5035615;28;20294;-61
2021/10/21 06:09:27;;;;;;;1.05;0.30;;;;;;;;;;5035549;28;20266;-60
2021/10/21 06:11:53;;;;;;;0.00;0.00;;;;;;;;;;5035611;28;20026;-60
2021/10/21 06:14:18;;;;;;;0.10;0.00;;;;;;;;;;5035103;28;20465;-60
2021/10/21 06:16:46;;;;;;;0.57;0.20;;;;;;;;;;5035268;28;20261;-60
2021/10/21 06:19:11;;;;;;;0.15;0.10;;;;;;;;;;5035411;28;20025;-60
2021/10/21 06:21:37;;;;;;;1.17;0.20;;;;;;;;;;5035226;28;20021;-61
2021/10/21 06:24:03;;;;;;;1.05;0.10;;;;;;;;;;5035394;28;20044;-61
2021/10/21 06:26:28;;;;;;;0.30;0.10;;;;;;;;;;5035240;28;20026;-60
2021/10/21 06:28:53;;;;;;;0.32;0.10;;;;;;;;;;5034285;28;20018;-61
2021/10/21 06:31:20;;;;;;;0.65;0.10;;;;;;;;;;5034615;28;20045;-60
2021/10/21 06:33:45;;;;;;;0.82;0.20;;;;;;;;;;5034584;28;20030;-60
2021/10/21 06:36:11;;;;;;;0.65;0.10;;;;;;;;;;5046453;28;20032;-60
2021/10/21 06:38:37;;;;;;;0.10;0.10;;;;;;;;;;5053559;28;20028;-60
2021/10/21 06:41:02;;;;;;;0.50;0.10;;;;;;;;;;5036994;28;20100;-60
2021/10/21 06:43:27;;;;;;;0.73;0.10;;;;;;;;;;5034774;28;20041;-60
2021/10/21 06:45:52;;;;;;;0.32;0.20;;;;;;;;;;5034043;28;20071;-61
2021/10/21 06:48:18;;;;;;;0.52;0.10;;;;;;;;;;5034436;28;20029;-60
2021/10/21 06:50:43;;;;;;;0.63;0.00;;;;;;;;;;5051477;28;20016;-60
2021/10/21 06:53:08;;;;;;;0.47;0.20;;;;;;;;;;5051020;28;20036;-60
2021/10/21 06:55:34;;;;;;;1.02;0.00;;;;;;;;;;5034320;28;20021;-60
2021/10/21 06:57:59;;;;;;;0.30;0.20;;;;;;;;;;5034700;28;20021;-60
2021/10/21 07:00:25;;;;;;;0.32;0.20;;;;;;;;;;5034295;28;20045;-60
2021/10/21 07:02:50;;;;;;;0.30;0.20;;;;;;;;;;5033697;28;20048;-60
2021/10/21 07:05:16;;;;;;;0.10;0.00;;;;;;;;;;5035198;28;20469;-60
2021/10/21 07:07:42;;;;;;;0.17;0.10;;;;;;;;;;5033988;28;20465;-60
2021/10/21 07:10:09;;;;;;;0.55;0.15;;;;;;;;;;5034318;28;20071;-61
2021/10/21 07:12:34;;;;;;;0.40;0.10;;;;;;;;;;5032263;28;20380;-61
2021/10/21 07:15:00;;;;;;;0.47;0.13;;;;;;;;;;5033842;28;20025;-61
2021/10/21 07:17:25;;;;;;;1.10;0.17;;;;;;;;;;5033800;28;20025;-60
2021/10/21 07:19:50;;;;;;;0.65;0.28;;;;;;;;;;5034011;28;20621;-60
2021/10/21 07:22:16;;;;;;;0.38;0.10;;;;;;;;;;5033602;28;20509;-60
2021/10/21 07:24:43;;;;;;;0.40;0.10;;;;;;;;;;5032322;28;20027;-60
2021/10/21 07:27:08;;;;;;;0.43;0.10;;;;;;;;;;5033387;28;20032;-60
2021/10/21 07:29:34;;;;;;;2.20;0.20;;;;;;;;;;5035937;28;20403;-61
2021/10/21 07:31:59;;;;;;;0.50;0.10;;;;;;;;;;5033136;28;20445;-61
2021/10/21 07:34:24;;;;;;;0.75;0.15;;;;;;;;;;5032034;28;20021;-61
2021/10/21 07:36:49;;;;;;;0.10;0.10;;;;;;;;;;5033590;28;20101;-61
2021/10/21 07:39:15;;;;;;;0.33;0.00;;;;;;;;;;5033433;28;20025;-61
2021/10/21 07:41:40;;;;;;;0.55;0.20;;;;;;;;;;5033321;28;20341;-61
2021/10/21 07:44:05;;;;;;;1.10;0.10;;;;;;;;;;5034119;28;20345;-60
2021/10/21 07:46:31;;;;;;;0.68;0.10;;;;;;;;;;5033489;28;20068;-60
2021/10/21 07:48:56;;;;;;;2.08;0.10;;;;;;;;;;5033510;28;20376;-60
2021/10/21 07:51:22;;;;;;;0.10;0.10;;;;;;;;;;5033520;28;20021;-61
2021/10/21 07:53:47;;;;;;;0.17;0.13;;;;;;;;;;5033299;28;20032;-60
2021/10/21 07:56:12;;;;;;;0.20;0.10;;;;;;;;;;5032948;28;20491;-61
2021/10/21 07:58:37;;;;;;;0.40;0.20;;;;;;;;;;5032962;28;20265;-60
2021/10/21 08:01:03;;;;;;;0.40;0.10;;;;;;;;;;5032994;28;20041;-61
2021/10/21 08:03:28;;;;;;;1.85;0.40;;;;;;;;;;5033132;28;20361;-60
2021/10/21 08:05:53;;;;;;;0.30;0.13;;;;;;;;;;5032637;28;20087;-60
2021/10/21 08:08:18;;;;;;;0.80;0.20;;;;;;;;;;5039170;28;20301;-60
2021/10/21 08:10:44;;;;;;;0.70;0.20;;;;;;;;;;5033040;28;20028;-60
2021/10/21 08:13:11;;;;;;;0.10;0.10;;;;;;;;;;5032607;28;20035;-60
2021/10/21 08:15:36;;;;;;;2.38;0.20;;;;;;;;;;5032913;28;20021;-60
2021/10/21 08:18:02;;;;;;;0.00;0.00;;;;;;;;;;5033172;28;20017;-60
2021/10/21 08:20:28;;;;;;;0.45;0.20;;;;;;;;;;5033172;28;20364;-60
2021/10/21 08:22:54;;;;;;;0.17;0.15;;;;;;;;;;5032748;28;20052;-60
2021/10/21 08:25:19;;;;;;;0.77;0.10;;;;;;;;;;5032138;28;20064;-61
2021/10/21 08:27:45;;;;;;;2.42;0.15;;;;;;;;;;5033536;28;20029;-60
2021/10/21 08:30:12;;;;;;;0.70;0.20;;;;;;;;;;5053068;28;20021;-61
2021/10/21 08:32:38;;;;;;;0.95;0.15;;;;;;;;;;5045171;28;20018;-60
2021/10/21 08:35:04;;;;;;;0.75;0.25;;;;;;;;;;5031908;28;20104;-61
2021/10/21 08:37:30;;;;;;;0.60;0.20;;;;;;;;;;5032928;28;20021;-60
2021/10/21 08:39:56;;;;;;;0.32;0.10;;;;;;;;;;5033120;28;20043;-60
2021/10/21 08:42:21;;;;;;;0.85;0.20;;;;;;;;;;5032795;28;20457;-60
2021/10/21 08:44:46;;;;;;;0.60;0.20;;;;;;;;;;5040292;28;20078;-60
2021/10/21 08:47:12;;;;;;;0.68;0.10;;;;;;;;;;5053137;28;20020;-60
2021/10/21 08:49:40;;;;;;;1.10;0.40;;;;;;;;;;5045136;28;20720;-61
2021/10/21 08:52:06;;;;;;;0.20;0.05;;;;;;;;;;5032669;28;20108;-60
2021/10/21 08:54:31;;;;;;;0.80;0.10;;;;;;;;;;5032507;28;20440;-60
2021/10/21 08:56:57;;;;;;;0.98;0.13;;;;;;;;;;5045406;28;20040;-60
2021/10/21 08:59:23;;;;;;;0.70;0.20;;;;;;;;;;5052461;28;20455;-60
2021/10/21 09:02:01;;;;;;;0.30;0.20;;;;;;;;;;5033436;28;20080;-60
2021/10/21 09:04:52;;;;;;;0.77;0.20;;;;;;;;;;5032820;28;20018;-60
2021/10/21 09:10:09;;;;;;;0.28;0.10;;;;;;;;;;5033247;28;20381;-60
2021/10/21 09:12:45;;;;;;;0.73;0.17;;;;;;;;;;5032162;28;20693;-60
2021/10/21 09:15:14;;;;;;;1.65;0.22;;;;;;;;;;5032782;28;20026;-60
2021/10/21 09:17:40;;;;;;;1.38;0.10;;;;;;;;;;5038984;28;20017;-61
2021/10/21 09:20:20;;;;;;;0.43;0.10;;;;;;;;;;5050827;28;20080;-60
2021/10/21 09:22:57;;;;;;;0.10;0.10;;;;;;;;;;5052593;28;20013;-61
2021/10/21 09:25:24;;;;;;;0.93;0.40;;;;;;;;;;5051146;28;20025;-60
2021/10/21 09:27:50;;;;;;;1.23;0.22;;;;;;;;;;5035006;28;20033;-61
2021/10/21 09:30:21;;;;;;;0.52;0.10;;;;;;;;;;5039877;28;20021;-60
2021/10/21 09:32:47;;;;;;;1.73;0.13;;;;;;;;;;5032545;28;20025;-61
2021/10/21 09:35:18;;;;;;;0.32;0.10;;;;;;;;;;5032589;28;20124;-61
2021/10/21 09:37:44;;;;;;;1.65;0.17;;;;;;;;;;5035285;28;20495;-60
2021/10/21 09:40:11;;;;;;;0.65;0.20;;;;;;;;;;5036748;28;20071;-60
2021/10/21 09:42:37;;;;;;;0.55;0.13;;;;;;;;;;5037435;28;20049;-60
2021/10/21 09:45:18;;;;;;;0.20;0.20;;;;;;;;;;5052280;28;20026;-60
2021/10/21 09:47:50;;;;;;;1.10;0.47;;;;;;;;;;5041225;28;20040;-60
2021/10/21 09:50:16;;;;;;;1.35;0.10;;;;;;;;;;5044360;28;20017;-60
2021/10/21 09:52:43;;;;;;;0.45;0.10;;;;;;;;;;5046824;28;20059;-60
2021/10/21 09:55:09;;;;;;;0.20;0.20;;;;;;;;;;5052354;28;20022;-60
2021/10/21 09:57:34;;;;;;;1.20;0.20;;;;;;;;;;5038990;28;20376;-62
2021/10/21 10:00:03;;;;;;;0.40;0.20;;;;;;;;;;5034649;28;20063;-60
2021/10/21 10:02:29;;;;;;;0.40;0.10;;;;;;;;;;5035997;28;20590;-60
2021/10/21 10:04:55;;;;;;;0.75;0.13;;;;;;;;;;5035530;28;20388;-60
2021/10/21 10:07:23;;;;;;;2.20;0.40;;;;;;;;;;5035773;28;20021;-60
2021/10/21 10:09:48;;;;;;;1.10;0.10;;;;;;;;;;5035619;28;20024;-61
2021/10/21 10:12:14;;;;;;;0.40;0.10;;;;;;;;;;5035661;28;20017;-60
2021/10/21 10:14:40;;;;;;;0.52;0.13;;;;;;;;;;5035424;28;20030;-61
2021/10/21 10:17:06;;;;;;;0.35;0.10;;;;;;;;;;5035441;28;20024;-60
2021/10/21 10:19:32;;;;;;;0.50;0.10;;;;;;;;;;5035186;28;20014;-61
2021/10/21 10:21:59;;;;;;;0.70;0.20;;;;;;;;;;5035160;28;20041;-60
2021/10/21 10:24:33;;;;;;;0.17;0.00;;;;;;;;;;5035300;28;20100;-60
2021/10/21 10:26:58;;;;;;;0.95;0.17;;;;;;;;;;5035550;28;20507;-61
2021/10/21 10:29:39;;;;;;;1.20;0.10;;;;;;;;;;5035247;28;20064;-60
2021/10/21 10:32:05;;;;;;;0.15;0.10;;;;;;;;;;5035032;28;20049;-61
2021/10/21 10:34:36;;;;;;;0.22;0.10;;;;;;;;;;5034844;28;20464;-61
2021/10/21 10:37:14;;;;;;;0.55;0.03;;;;;;;;;;5035086;28;20021;-61
2021/10/21 10:39:48;;;;;;;0.28;0.00;;;;;;;;;;5034813;28;20037;-62
2021/10/21 10:42:14;;;;;;;0.20;0.10;;;;;;;;;;5034881;28;20022;-60
2021/10/21 10:44:49;;;;;;;0.60;0.10;;;;;;;;;;5034782;28;20506;-60
2021/10/21 10:47:14;;;;;;;;;;;;;;;;;;5034889;28;20029;-61
2021/10/21 10:49:40;;;;;;;0.10;0.05;;;;;;;;;;5034433;28;19948;-61
2021/10/21 10:52:06;;;;;;;0.68;0.15;;;;;;;;;;5034896;28;20091;-60
2021/10/21 10:54:53;;;;;;;0.20;0.20;;;;;;;;;;5034423;28;20037;-60
2021/10/21 10:57:24;;;;;;;0.35;0.30;;;;;;;;;;5034420;28;20018;-60
2021/10/21 10:59:50;;;;;;;0.10;0.00;;;;;;;;;;5033459;28;20520;-61
2021/10/21 11:02:25;;;;;;;0.85;0.30;;;;;;;;;;5034516;28;20102;-60
2021/10/21 11:04:57;;;;;;;0.25;0.13;;;;;;;;;;5034473;28;20023;-60
2021/10/21 11:07:23;;;;;;;0.40;0.00;;;;;;;;;;5034389;28;20432;-61
2021/10/21 11:09:49;;;;;;;0.03;0.00;;;;;;;;;;5034462;28;20100;-60
2021/10/21 11:12:24;;;;;;;0.10;0.08;;;;;;;;;;5034504;28;20057;-60
2021/10/21 11:14:56;;;;;;;1.45;0.20;;;;;;;;;;5034090;28;20045;-61
2021/10/21 11:17:42;;;;;;;0.13;0.00;;;;;;;;;;5034152;28;20024;-60
2021/10/21 11:20:27;;;;;;;0.40;0.10;;;;;;;;;;5023553;28;20044;-61
2021/10/21 11:22:53;;;;;;;0.10;0.10;;;;;;;;;;5031799;28;20032;-61
2021/10/21 11:25:18;;;;;;;0.80;0.22;;;;;;;;;;5033927;28;20025;-60
2021/10/21 11:27:45;;;;;;;1.65;0.20;;;;;;;;;;5033565;28;20021;-61
2021/10/21 11:30:12;;;;;;;0.73;0.10;;;;;;;;;;5034257;28;20056;-60
2021/10/21 11:32:38;;;;;;;0.50;0.10;;;;;;;;;;5033288;28;20017;-60
2021/10/21 11:35:05;;;;;;;0.05;0.00;;;;;;;;;;5033774;28;20117;-60
2021/10/21 11:37:34;;;;;;;0.60;0.10;;;;;;;;;;5033142;28;20108;-61
2021/10/21 11:40:02;;;;;;;0.20;0.20;;;;;;;;;;5033906;28;20025;-60
2021/10/21 11:42:28;;;;;;;0.35;0.10;;;;;;;;;;5033556;28;20018;-61
2021/10/21 11:45:00;;;;;;;0.00;0.00;;;;;;;;;;5033130;28;20749;-60
2021/10/21 11:47:26;;;;;;;1.80;0.10;;;;;;;;;;5033077;28;20044;-60
2021/10/21 11:49:55;;;;;;;0.22;0.20;;;;;;;;;;5033750;28;20021;-60
2021/10/21 11:52:20;;;;;;;0.35;0.10;;;;;;;;;;5033777;28;20078;-60
2021/10/21 11:54:46;;;;;;;1.45;0.10;;;;;;;;;;5032975;28;20092;-60
2021/10/21 11:57:11;;;;;;;0.30;0.05;;;;;;;;;;5033779;28;20109;-60
2021/10/21 11:59:36;;;;;;;0.43;0.10;;;;;;;;;;5032135;28;20022;-60
2021/10/21 12:02:08;;;;;;;0.00;0.00;;;;;;;;;;5033413;28;20168;-60
2021/10/21 12:04:34;;;;;;;0.60;0.10;;;;;;;;;;5033062;28;20032;-60
2021/10/21 12:07:00;;;;;;;2.10;0.52;;;;;;;;;;5033146;28;20100;-60
2021/10/21 12:09:25;;;;;;;0.10;0.00;;;;;;;;;;5032994;28;20025;-60
2021/10/21 12:12:05;;;;;;;0.38;0.20;;;;;;;;;;5032951;28;20024;-60
2021/10/21 12:14:30;;;;;;;0.95;0.17;;;;;;;;;;5033047;28;20375;-60
2021/10/21 12:16:56;;;;;;;0.98;0.10;;;;;;;;;;5033477;28;20018;-60
2021/10/21 12:19:22;;;;;;;0.45;0.10;;;;;;;;;;5033234;28;20480;-60
2021/10/21 12:21:47;;;;;;;1.10;0.30;;;;;;;;;;5033180;28;20024;-60
2021/10/21 12:24:25;;;;;;;0.60;0.13;;;;;;;;;;5033296;28;20067;-60
2021/10/21 12:27:01;;;;;;;0.20;0.03;;;;;;;;;;5033313;28;20097;-60
2021/10/21 12:29:33;;;;;;;1.35;0.10;;;;;;;;;;5042601;28;20018;-60
2021/10/21 12:31:58;;;;;;;1.00;0.17;;;;;;;;;;5031894;28;20021;-60
2021/10/21 12:34:24;;;;;;;1.30;0.00;;;;;;;;;;5031036;28;20013;-60
2021/10/21 12:36:51;;;;;;;0.52;0.10;;;;;;;;;;5031635;28;20104;-60
2021/10/21 12:39:17;;;;;;;0.40;0.10;;;;;;;;;;5031856;28;20487;-60
2021/10/21 12:41:55;;;;;;;0.70;0.10;;;;;;;;;;5031119;28;21085;-61
2021/10/21 12:44:22;;;;;;;1.25;0.20;;;;;;;;;;5031648;28;20025;-60
2021/10/21 12:46:47;;;;;;;1.55;0.20;;;;;;;;;;5031231;28;20049;-60
2021/10/21 12:49:14;;;;;;;0.20;0.00;;;;;;;;;;5030959;28;20061;-60
2021/10/21 12:51:41;;;;;;;0.20;0.00;;;;;;;;;;5029462;28;20032;-60
2021/10/21 12:54:06;;;;;;;0.17;0.10;;;;;;;;;;5031649;28;20021;-61
2021/10/21 12:56:34;;;;;;;0.10;0.10;;;;;;;;;;5030872;28;20104;-60
2021/10/21 12:59:00;;;;;;;1.55;0.30;;;;;;;;;;5031250;28;20017;-61
2021/10/21 13:01:25;;;;;;;0.40;0.10;;;;;;;;;;5031648;28;20038;-60
2021/10/21 13:03:51;;;;;;;0.25;0.08;;;;;;;;;;5032845;28;20033;-61
2021/10/21 13:06:19;;;;;;;0.47;0.10;;;;;;;;;;5032720;28;20114;-60
2021/10/21 13:08:50;;;;;;;0.32;0.10;;;;;;;;;;5032640;28;20825;-60
2021/10/21 13:11:18;;;;;;;0.20;0.15;;;;;;;;;;5033758;28;20113;-66
2021/10/21 13:13:48;;;;;;;0.10;0.10;;;;;;;;;;5036796;28;20036;-65
2021/10/21 13:16:14;;;;;;;0.70;0.10;;;;;;;;;;5036617;28;20013;-65
2021/10/21 13:18:39;;;;;;;0.50;0.00;;;;;;;;;;5036318;28;20128;-65
2021/10/21 13:21:05;;;;;;;1.98;0.17;;;;;;;;;;5036576;28;20387;-66
2021/10/21 13:23:31;;;;;;;0.55;0.10;;;;;;;;;;5036288;28;20071;-65
2021/10/21 13:25:56;;;;;;;0.57;0.10;;;;;;;;;;5040402;28;20021;-67
2021/10/21 13:28:22;;;;;;;1.27;0.00;;;;;;;;;;5037998;28;20025;-68
2021/10/21 13:30:47;;;;;;;0.63;0.20;;;;;;;;;;5038694;28;20018;-67
2021/10/21 13:33:14;;;;;;;0.50;0.10;;;;;;;;;;5035472;28;20029;-68
2021/10/21 13:35:39;;;;;;;0.80;0.10;;;;;;;;;;5035990;28;20017;-66
2021/10/21 13:38:05;;;;;;;1.55;0.73;;;;;;;;;;5036384;28;20026;-67
2021/10/21 13:40:30;;;;;;;1.98;0.10;;;;;;;;;;5036248;28;20045;-72
2021/10/21 13:42:56;;;;;;;0.45;0.10;;;;;;;;;;5035650;28;20025;-69
2021/10/21 13:45:22;;;;;;;0.43;0.15;;;;;;;;;;5035617;28;20031;-68
2021/10/21 13:47:47;;;;;;;0.45;0.05;;;;;;;;;;5035469;28;20096;-68
2021/10/21 13:50:13;;;;;;;0.00;0.00;;;;;;;;;;5035998;28;20129;-70
2021/10/21 13:52:47;;;;;;;0.93;0.10;;;;;;;;;;5035307;28;20038;-69
2021/10/21 13:55:12;;;;;;;0.65;0.43;;;;;;;;;;5035904;28;20017;-66
2021/10/21 13:57:37;;;;;;;0.25;0.20;;;;;;;;;;5035440;28;20033;-67
2021/10/21 14:00:07;;;;;;;0.10;0.00;;;;;;;;;;5034768;28;20087;-68
2021/10/21 14:02:32;;;;;;;0.40;0.10;;;;;;;;;;5035601;28;20014;-68
2021/10/21 14:04:57;;;;;;;0.30;0.30;;;;;;;;;;5035252;28;20376;-69
2021/10/21 14:07:24;;;;;;;0.75;0.08;;;;;;;;;;5035784;28;20060;-68
2021/10/21 14:09:50;;;;;;;0.32;0.00;;;;;;;;;;5035808;28;20456;-67
2021/10/21 14:12:15;;;;;;;0.25;0.17;;;;;;;;;;5035779;28;20025;-67
2021/10/21 14:14:41;;;;;;;0.10;0.00;;;;;;;;;;5035556;28;20091;-67
2021/10/21 14:17:06;;;;;;;0.73;0.20;;;;;;;;;;5034786;28;20047;-67
2021/10/21 14:19:31;;;;;;;0.52;0.13;;;;;;;;;;5035291;28;20029;-67
2021/10/21 14:21:57;;;;;;;0.63;0.10;;;;;;;;;;5035246;28;20468;-67
2021/10/21 14:24:23;;;;;;;0.10;0.10;;;;;;;;;;5041630;28;20033;-67
2021/10/21 14:26:49;;;;;;;0.50;0.22;;;;;;;;;;5036291;28;20773;-67
2021/10/21 14:29:14;;;;;;;0.10;0.00;;;;;;;;;;5035637;28;20112;-68
2021/10/21 14:31:40;;;;;;;0.65;0.10;;;;;;;;;;5034623;28;20066;-68
2021/10/21 14:34:09;;;;;;;0.00;0.00;;;;;;;;;;5035277;28;20068;-66
2021/10/21 14:36:34;;;;;;;1.48;0.30;;;;;;;;;;5034857;28;20049;-67
2021/10/21 14:39:03;;;;;;;0.70;0.17;;;;;;;;;;5035006;28;20052;-68
2021/10/21 14:41:29;;;;;;;0.55;0.10;;;;;;;;;;5034573;28;20022;-68